createdAt,value
2019-03-17T01:30:18.260Z,99.90
2019-03-17T01:32:52.472Z,99.90
2019-03-17T01:35:33.931Z,99.90
2019-03-17T01:38:08.065Z,99.90
2019-03-17T01:40:42.570Z,99.90
2019-03-17T01:43:15.826Z,99.90
2019-03-17T01:45:50.146Z,99.90
2019-03-17T01:48:23.896Z,99.90
2019-03-17T01:50:57.839Z,99.90
2019-03-17T01:53:31.594Z,99.90
2019-03-17T01:56:09.221Z,99.90
2019-03-17T01:58:42.485Z,99.90
2019-03-17T02:01:15.638Z,99.90
2019-03-17T02:03:48.452Z,99.90
2019-03-17T02:06:21.791Z,99.90
2019-03-17T02:08:54.888Z,99.90
2019-03-17T02:11:28.220Z,99.90
2019-03-17T02:14:01.782Z,99.90
2019-03-17T02:16:35.447Z,99.90
2019-03-17T02:19:09.319Z,99.90
2019-03-17T02:21:43.294Z,99.90
2019-03-17T02:24:16.595Z,99.90
2019-03-17T02:26:50.199Z,99.90
2019-03-17T02:29:24.138Z,99.90
2019-03-17T02:31:57.325Z,99.90
2019-03-17T02:34:30.749Z,99.90
2019-03-17T02:37:04.277Z,99.90
2019-03-17T02:39:37.618Z,99.90
2019-03-17T02:42:12.329Z,99.90
2019-03-17T02:44:45.818Z,99.90
2019-03-17T02:47:23.143Z,99.90
2019-03-17T02:49:57.091Z,99.90
2019-03-17T02:52:30.513Z,99.80
2019-03-17T02:55:04.006Z,99.70
2019-03-17T02:57:37.362Z,99.90
2019-03-17T03:00:11.894Z,99.80
2019-03-17T03:02:47.344Z,99.80
2019-03-17T03:05:20.531Z,99.80
2019-03-17T03:07:53.556Z,99.70
2019-03-17T03:10:27.138Z,99.70
2019-03-17T03:13:00.294Z,99.60
2019-03-17T03:15:33.098Z,99.60
2019-03-17T03:18:06.180Z,99.60
2019-03-17T03:20:39.277Z,99.60
2019-03-17T03:23:13.544Z,99.60
2019-03-17T03:25:46.478Z,99.50
2019-03-17T03:28:20.081Z,99.50
2019-03-17T03:30:58.172Z,99.50
2019-03-17T03:33:31.731Z,99.60
2019-03-17T03:36:11.089Z,99.50
2019-03-17T03:38:40.041Z,99.50
2019-03-17T03:41:15.352Z,99.50
2019-03-17T03:43:48.595Z,99.60
2019-03-17T03:46:22.198Z,99.50
2019-03-17T03:48:55.769Z,99.40
2019-03-17T03:51:28.896Z,99.40
2019-03-17T03:54:02.930Z,99.50
2019-03-17T03:56:35.821Z,99.40
2019-03-17T03:59:09.159Z,99.50
2019-03-17T04:01:42.445Z,99.40
2019-03-17T04:04:15.373Z,99.50
2019-03-17T04:06:48.212Z,99.50
2019-03-17T04:09:21.782Z,99.50
2019-03-17T04:11:57.711Z,99.50
2019-03-17T04:14:31.106Z,99.50
2019-03-17T04:17:04.222Z,99.90
2019-03-17T04:19:37.102Z,99.30
2019-03-17T04:22:09.854Z,99.30
2019-03-17T04:24:43.413Z,99.80
2019-03-17T04:27:16.290Z,99.30
2019-03-17T04:29:49.514Z,99.40
2019-03-17T04:32:23.136Z,99.50
2019-03-17T04:34:56.951Z,99.50
2019-03-17T04:37:29.679Z,99.50
2019-03-17T04:40:04.879Z,99.40
2019-03-17T04:42:45.445Z,99.70
2019-03-17T04:45:19.012Z,99.20
2019-03-17T04:47:51.758Z,99.20
2019-03-17T04:50:24.735Z,99.20
2019-03-17T04:52:57.747Z,99.20
2019-03-17T04:55:31.181Z,99.20
2019-03-17T04:58:04.129Z,99.20
2019-03-17T05:00:38.310Z,99.20
2019-03-17T05:03:11.272Z,99.00
2019-03-17T05:05:44.770Z,99.00
2019-03-17T05:08:17.726Z,99.20
2019-03-17T05:10:50.789Z,99.20
2019-03-17T05:13:25.788Z,99.00
2019-03-17T05:15:59.100Z,98.90
2019-03-17T05:18:32.399Z,99.00
2019-03-17T05:21:06.481Z,98.90
2019-03-17T05:23:39.470Z,98.80
2019-03-17T05:26:12.739Z,98.70
2019-03-17T05:28:46.500Z,98.50
2019-03-17T05:31:19.873Z,98.80
2019-03-17T05:33:52.637Z,98.90
2019-03-17T05:36:25.929Z,98.30
2019-03-17T05:38:58.668Z,98.70
2019-03-17T05:41:31.689Z,98.60
2019-03-17T05:44:05.400Z,98.00
2019-03-17T05:46:39.276Z,98.00
2019-03-17T05:49:12.245Z,98.40
2019-03-17T05:51:45.637Z,98.30
2019-03-17T05:54:18.748Z,98.40
2019-03-17T05:56:52.678Z,98.60
2019-03-17T05:59:26.018Z,98.50
2019-03-17T06:01:59.677Z,98.30
2019-03-17T06:04:32.529Z,98.40
2019-03-17T06:07:17.681Z,98.70
2019-03-17T06:09:40.929Z,98.50
2019-03-17T06:12:14.410Z,98.00
2019-03-17T06:14:47.465Z,98.40
2019-03-17T06:17:20.841Z,98.20
2019-03-17T06:19:53.508Z,98.40
2019-03-17T06:22:26.775Z,97.00
2019-03-17T06:24:59.496Z,97.70
2019-03-17T06:27:32.875Z,97.90
2019-03-17T06:30:07.011Z,97.90
2019-03-17T06:32:40.622Z,98.00
2019-03-17T06:35:13.740Z,98.20
2019-03-17T06:37:46.757Z,98.30
2019-03-17T06:54:34.384Z,98.20
2019-03-17T06:57:08.501Z,98.10
2019-03-17T06:59:43.507Z,98.30
2019-03-17T07:02:16.872Z,98.10
2019-03-17T07:04:50.691Z,97.70
2019-03-17T07:07:23.587Z,97.90
2019-03-17T07:09:56.506Z,97.80
2019-03-17T07:12:30.201Z,97.70
2019-03-17T07:15:05.699Z,97.30
2019-03-17T07:17:39.502Z,98.00
2019-03-17T07:20:14.321Z,98.00
2019-03-17T07:22:47.882Z,98.50
2019-03-17T07:25:21.751Z,98.10
2019-03-17T07:27:55.710Z,98.10
2019-03-17T07:30:29.465Z,98.40
2019-03-17T07:33:03.043Z,98.20
2019-03-17T07:35:37.967Z,98.10
2019-03-17T07:38:11.621Z,98.00
2019-03-17T07:40:44.655Z,98.30
2019-03-17T07:43:17.921Z,98.30
2019-03-17T07:45:51.612Z,98.30
2019-03-17T07:48:25.195Z,98.30
2019-03-17T07:50:58.794Z,98.40
2019-03-17T07:53:33.810Z,98.30
2019-03-17T07:56:07.949Z,98.40
2019-03-17T07:58:46.623Z,98.50
2019-03-17T08:01:25.881Z,98.30
2019-03-17T08:03:59.691Z,98.40
2019-03-17T08:06:33.258Z,98.40
2019-03-17T08:09:08.835Z,98.50
2019-03-17T08:11:42.902Z,98.40
2019-03-17T08:14:16.532Z,98.50
2019-03-17T08:16:50.436Z,98.40
2019-03-17T08:19:24.128Z,98.60
2019-03-17T08:21:58.803Z,98.60
2019-03-17T08:24:32.418Z,98.60
2019-03-17T08:27:08.203Z,99.00
2019-03-17T08:29:44.078Z,98.70
2019-03-17T08:32:17.667Z,98.70
2019-03-17T08:34:53.381Z,98.70
2019-03-17T08:37:27.079Z,98.80
2019-03-17T08:40:00.972Z,98.60
2019-03-17T08:42:34.022Z,99.00
2019-03-17T08:45:07.639Z,98.60
2019-03-17T08:47:57.350Z,98.90
2019-03-17T08:50:21.652Z,98.70
2019-03-17T08:52:55.038Z,98.60
2019-03-17T08:55:29.884Z,98.60
2019-03-17T08:58:04.510Z,98.70
2019-03-17T09:00:38.283Z,98.70
2019-03-17T09:03:17.868Z,98.80
2019-03-17T09:05:52.723Z,98.80
2019-03-17T09:08:34.291Z,98.70
2019-03-17T09:11:00.851Z,98.70
2019-03-17T09:13:33.585Z,98.80
2019-03-17T09:16:07.450Z,98.80
2019-03-17T09:18:42.471Z,98.80
2019-03-17T09:21:16.740Z,98.70
2019-03-17T09:23:49.615Z,98.70
2019-03-17T09:26:39.724Z,98.80
2019-03-17T09:36:06.059Z,98.70
2019-03-17T09:38:47.259Z,98.70
2019-03-17T09:41:43.131Z,98.80
2019-03-17T09:47:41.241Z,98.80
2019-03-17T09:50:15.831Z,98.80
2019-03-17T09:52:49.035Z,98.80
2019-03-17T09:55:22.769Z,98.80
2019-03-17T09:57:56.007Z,98.80
2019-03-17T10:00:29.552Z,98.80
2019-03-17T10:03:02.915Z,98.80
2019-03-17T10:05:36.091Z,98.80
2019-03-17T10:08:11.186Z,98.80
2019-03-17T10:10:44.198Z,98.90
2019-03-17T10:13:17.695Z,98.90
2019-03-17T10:15:50.979Z,98.70
2019-03-17T10:18:24.557Z,98.80
2019-03-17T10:20:58.464Z,98.70
2019-03-17T10:23:32.351Z,98.80
2019-03-17T10:26:05.680Z,98.80
2019-03-17T10:28:38.819Z,98.80
2019-03-17T10:31:12.227Z,98.80
2019-03-17T10:33:46.557Z,98.80
2019-03-17T10:36:19.637Z,98.80
2019-03-17T10:38:55.596Z,98.80
2019-03-17T10:41:29.401Z,98.80
2019-03-17T10:44:03.517Z,98.80
2019-03-17T10:46:36.288Z,98.80
2019-03-17T10:49:09.773Z,98.90
2019-03-17T10:51:43.463Z,99.40
2019-03-17T10:54:36.671Z,99.10
2019-03-17T10:57:04.583Z,99.10
2019-03-17T10:59:37.629Z,99.40
2019-03-17T11:02:11.130Z,99.30
2019-03-17T11:04:44.347Z,99.30
2019-03-17T11:07:17.662Z,99.30
2019-03-17T11:09:51.134Z,99.40
2019-03-17T11:12:25.590Z,99.30
2019-03-17T11:14:58.929Z,99.30
2019-03-17T11:17:32.255Z,99.30
2019-03-17T11:20:06.730Z,99.40
2019-03-17T11:22:40.271Z,99.30
2019-03-17T11:25:19.361Z,99.40
2019-03-17T11:27:52.155Z,99.40
2019-03-17T11:30:25.281Z,99.40
2019-03-17T11:32:58.583Z,99.50
2019-03-17T11:35:31.937Z,99.50
2019-03-17T11:38:04.971Z,99.50
2019-03-17T11:40:38.188Z,99.60
2019-03-17T11:43:11.292Z,99.50
2019-03-17T11:45:44.990Z,99.60
2019-03-17T11:48:19.821Z,99.60
2019-03-17T11:50:53.173Z,99.60
2019-03-17T11:53:27.302Z,99.60
2019-03-17T11:56:04.753Z,99.50
2019-03-17T11:58:37.636Z,99.60
2019-03-17T12:01:12.276Z,99.60
2019-03-17T12:03:47.142Z,99.70
2019-03-17T12:06:20.754Z,99.60
2019-03-17T12:08:55.131Z,99.60
2019-03-17T12:11:28.399Z,99.60
2019-03-17T12:14:01.104Z,99.60
2019-03-17T12:16:34.116Z,99.60
2019-03-17T12:19:07.757Z,99.50
2019-03-17T12:21:41.072Z,99.50
2019-03-17T12:24:14.052Z,99.50
2019-03-17T12:26:51.906Z,99.60
2019-03-17T12:29:26.429Z,99.50
2019-03-17T12:32:00.647Z,99.50
2019-03-17T12:34:33.902Z,99.50
2019-03-17T12:37:07.101Z,99.50
2019-03-17T12:39:43.086Z,99.60
2019-03-17T12:42:17.487Z,99.50
2019-03-17T12:44:50.720Z,99.60
2019-03-17T12:47:26.311Z,99.50
2019-03-17T12:49:59.500Z,99.50
2019-03-17T12:52:34.415Z,99.50
2019-03-17T12:55:09.038Z,99.50
2019-03-17T12:57:42.669Z,99.50
2019-03-17T13:00:24.797Z,99.40
2019-03-17T13:02:58.616Z,99.50
2019-03-17T13:05:34.531Z,99.50
2019-03-17T13:08:08.421Z,99.50
2019-03-17T13:10:45.213Z,99.50
2019-03-17T13:13:25.548Z,99.40
2019-03-17T13:16:00.660Z,99.40
2019-03-17T13:18:33.643Z,99.60
2019-03-17T13:21:06.476Z,99.40
2019-03-17T13:23:39.670Z,99.40
2019-03-17T13:26:14.265Z,99.50
2019-03-17T13:28:47.234Z,99.50
2019-03-17T13:31:20.752Z,99.50
2019-03-17T13:33:53.526Z,99.60
2019-03-17T13:36:28.450Z,99.40
2019-03-17T13:39:01.507Z,99.40
2019-03-17T13:41:36.482Z,99.80
2019-03-17T13:44:09.517Z,99.40
2019-03-17T13:46:43.486Z,99.40
2019-03-17T13:49:17.485Z,99.50
2019-03-17T13:51:54.670Z,99.40
2019-03-17T13:54:28.095Z,99.40
2019-03-17T13:57:01.369Z,99.40
2019-03-17T13:59:34.992Z,99.40
2019-03-17T14:02:09.475Z,99.40
2019-03-17T14:04:54.755Z,99.40
2019-03-17T14:07:28.379Z,99.40
2019-03-17T14:10:13.377Z,99.40
2019-03-17T14:12:37.691Z,99.40
2019-03-17T14:15:17.012Z,99.40
2019-03-17T14:17:50.686Z,99.30
2019-03-17T14:20:25.112Z,99.40
2019-03-17T14:22:58.466Z,99.50
2019-03-17T14:25:33.212Z,99.40
2019-03-17T14:28:06.520Z,99.40
2019-03-17T14:30:39.661Z,99.60
2019-03-17T14:33:12.487Z,99.40
2019-03-17T14:35:46.501Z,99.40
2019-03-17T14:38:20.506Z,99.40
2019-03-17T14:40:57.186Z,99.40
2019-03-17T14:43:30.376Z,99.40
2019-03-17T14:46:03.461Z,99.40
2019-03-17T14:48:39.596Z,99.40
2019-03-17T14:51:12.203Z,99.40
2019-03-17T14:53:47.348Z,99.40
2019-03-17T14:56:21.342Z,99.40
2019-03-17T14:58:55.217Z,99.40
2019-03-17T15:01:29.606Z,99.40
2019-03-17T15:04:03.663Z,99.40
2019-03-17T15:06:37.202Z,99.40
2019-03-17T15:09:14.923Z,99.40
2019-03-17T15:11:48.094Z,99.50
2019-03-17T15:14:21.067Z,99.40
2019-03-17T15:16:54.285Z,99.40
2019-03-17T15:19:28.956Z,99.60
2019-03-17T15:22:02.149Z,99.50
2019-03-17T15:24:36.634Z,99.50
2019-03-17T15:27:15.026Z,99.50
2019-03-17T15:29:48.712Z,99.50
2019-03-17T15:32:25.177Z,99.50
2019-03-17T15:34:58.733Z,99.50
2019-03-17T15:37:36.311Z,99.50
2019-03-17T15:40:15.447Z,99.50
2019-03-17T15:42:49.079Z,99.50
2019-03-17T15:45:32.055Z,99.40
2019-03-17T15:48:06.464Z,99.50
2019-03-17T15:50:39.657Z,99.50
2019-03-17T15:53:13.390Z,99.50
2019-03-17T15:55:47.084Z,99.40
2019-03-17T15:58:20.167Z,99.40
2019-03-17T16:00:59.716Z,99.40
2019-03-17T16:03:33.497Z,99.40
2019-03-17T16:06:06.464Z,99.50
2019-03-17T16:08:39.677Z,99.40
2019-03-17T16:11:12.529Z,99.40
2019-03-17T16:13:50.429Z,99.40
2019-03-17T16:16:30.846Z,99.40
2019-03-17T16:19:05.478Z,99.70
2019-03-17T16:21:40.370Z,99.80
2019-03-17T16:24:13.979Z,99.60
2019-03-17T16:26:48.422Z,99.60
2019-03-17T16:29:21.634Z,99.50
2019-03-17T16:31:54.678Z,99.60
2019-03-17T16:34:29.001Z,99.50
2019-03-17T16:37:01.898Z,99.50
2019-03-17T16:39:35.510Z,99.50
2019-03-17T16:42:08.608Z,99.80
2019-03-17T16:44:42.013Z,99.70
2019-03-17T16:47:15.540Z,99.50
2019-03-17T16:49:49.111Z,99.50
2019-03-17T16:52:22.603Z,99.60
2019-03-17T16:54:59.095Z,99.60
2019-03-17T16:57:32.653Z,99.60
2019-03-17T17:00:07.042Z,99.60
2019-03-17T17:02:40.205Z,99.80
2019-03-17T17:05:20.194Z,99.80
2019-03-17T17:07:54.222Z,99.90
2019-03-17T17:10:28.830Z,99.70
2019-03-17T17:13:02.045Z,99.80
2019-03-17T17:15:35.802Z,99.90
2019-03-17T17:18:08.642Z,99.90
2019-03-17T17:20:42.167Z,99.70
2019-03-17T17:23:14.990Z,99.90
2019-03-17T17:25:48.150Z,99.90
2019-03-17T17:28:22.833Z,99.70
2019-03-17T17:31:14.911Z,99.70
2019-03-17T17:33:47.668Z,99.80
2019-03-17T17:36:23.102Z,99.70
2019-03-17T17:38:56.430Z,99.80
2019-03-17T17:41:29.309Z,99.90
2019-03-17T17:44:03.292Z,99.70
2019-03-17T17:46:36.543Z,99.60
2019-03-17T17:49:09.959Z,99.70
2019-03-17T17:51:43.631Z,99.60
2019-03-17T17:54:16.625Z,99.60
2019-03-17T17:56:49.694Z,99.70
2019-03-17T17:59:22.675Z,99.90
2019-03-17T18:01:56.812Z,99.90
2019-03-17T18:04:29.689Z,99.80
2019-03-17T18:07:02.690Z,99.70
2019-03-17T18:09:35.490Z,99.60
2019-03-17T18:12:20.099Z,99.80
2019-03-17T18:14:43.143Z,99.80
2019-03-17T18:17:16.026Z,99.90
2019-03-17T18:19:49.047Z,99.80
2019-03-17T18:22:21.976Z,99.90
2019-03-17T18:24:54.788Z,99.80
2019-03-17T18:27:27.961Z,99.80
2019-03-17T18:30:01.136Z,99.80
2019-03-17T18:32:34.607Z,99.90
2019-03-17T18:35:08.844Z,99.90
2019-03-17T18:37:41.825Z,99.90
2019-03-17T18:40:18.282Z,99.90
2019-03-17T18:42:51.182Z,99.90
2019-03-17T18:45:28.037Z,99.90
2019-03-17T18:48:01.620Z,99.90
2019-03-17T18:50:36.186Z,99.90
2019-03-17T18:53:09.043Z,99.90
2019-03-17T18:55:42.559Z,99.90
2019-03-17T18:58:15.621Z,99.90
2019-03-17T19:00:48.592Z,99.90
2019-03-17T19:03:21.544Z,99.90
2019-03-17T19:05:55.078Z,99.90
2019-03-17T19:08:28.066Z,99.90
2019-03-17T19:11:05.960Z,99.90
2019-03-17T19:13:39.439Z,99.90
2019-03-17T19:16:12.649Z,99.90
2019-03-17T19:18:52.647Z,99.90
2019-03-17T19:21:27.401Z,99.90
2019-03-17T19:24:02.543Z,99.90
2019-03-17T19:27:00.921Z,99.90
2019-03-17T19:29:41.786Z,99.90
2019-03-17T19:32:14.725Z,99.90
2019-03-17T19:34:49.091Z,99.90
2019-03-17T19:37:22.414Z,99.90
2019-03-17T19:39:55.215Z,99.90
2019-03-17T19:42:30.201Z,99.90
2019-03-17T19:45:03.151Z,99.90
2019-03-17T19:47:36.424Z,99.90
2019-03-17T19:50:14.902Z,99.80
2019-03-17T19:53:08.061Z,99.90
2019-03-17T19:55:41.458Z,99.90
2019-03-17T19:58:14.775Z,99.90
2019-03-17T20:00:48.221Z,99.90
2019-03-17T20:03:21.388Z,99.90
2019-03-17T20:06:02.089Z,99.90
2019-03-17T20:08:30.259Z,99.90
2019-03-17T20:11:03.107Z,99.90
2019-03-17T20:13:35.901Z,99.90
2019-03-17T20:16:08.698Z,99.90
2019-03-17T20:18:42.142Z,99.90
2019-03-17T20:21:26.176Z,99.90
2019-03-17T20:23:59.228Z,99.90
2019-03-17T20:26:31.949Z,99.90
2019-03-17T20:29:06.789Z,99.90
2019-03-17T20:31:40.084Z,99.90
2019-03-17T20:34:13.140Z,99.90
2019-03-17T20:36:47.325Z,99.90
2019-03-17T20:39:21.526Z,99.90
2019-03-17T20:41:54.673Z,99.90
2019-03-17T20:44:27.636Z,99.90
2019-03-17T20:47:01.001Z,99.90
2019-03-17T20:49:33.953Z,99.90
2019-03-17T20:52:07.931Z,99.90
2019-03-17T20:54:40.871Z,99.90
2019-03-17T20:57:16.218Z,99.90
2019-03-17T20:59:50.045Z,99.90
2019-03-17T21:02:23.119Z,99.90
2019-03-17T21:04:56.156Z,99.90
2019-03-17T21:07:29.146Z,99.90
2019-03-17T21:10:02.220Z,99.90
2019-03-17T21:12:35.242Z,99.90
2019-03-17T21:15:15.628Z,99.90
2019-03-17T21:17:49.638Z,99.90
2019-03-17T21:20:27.142Z,99.90
2019-03-17T21:23:00.757Z,99.90
2019-03-17T21:25:34.683Z,99.90
2019-03-17T21:28:07.912Z,99.90
2019-03-17T21:30:41.054Z,99.90
2019-03-17T21:33:14.390Z,99.90
2019-03-17T21:35:48.478Z,99.90
2019-03-17T21:38:22.464Z,99.90
2019-03-17T21:41:06.556Z,99.90
2019-03-17T21:43:30.402Z,99.90
2019-03-17T21:46:03.436Z,99.90
2019-03-17T21:48:37.265Z,99.90
2019-03-17T21:51:10.487Z,99.90
2019-03-17T21:53:43.931Z,99.90
2019-03-17T21:56:17.005Z,99.90
2019-03-17T21:59:02.205Z,99.90
2019-03-17T22:01:36.400Z,99.90
2019-03-17T22:04:09.616Z,99.90
2019-03-17T22:06:43.273Z,99.90
2019-03-17T22:09:17.288Z,99.90
2019-03-17T22:11:50.852Z,99.90
2019-03-17T22:14:23.682Z,99.90
2019-03-17T22:16:56.793Z,99.90
2019-03-17T22:19:30.123Z,99.90
2019-03-17T22:22:02.994Z,99.90
2019-03-17T22:24:36.031Z,99.90
2019-03-17T22:27:09.553Z,99.90
2019-03-17T22:29:44.077Z,99.90
2019-03-17T22:32:17.621Z,99.90
2019-03-17T22:35:10.699Z,99.90
2019-03-17T22:37:43.767Z,99.90
2019-03-17T22:40:17.998Z,99.90
2019-03-17T22:42:51.157Z,99.90
2019-03-17T22:45:24.025Z,99.90
2019-03-17T22:47:57.464Z,99.90
2019-03-17T22:50:30.859Z,99.90
2019-03-17T22:53:04.131Z,99.90
2019-03-17T22:55:36.947Z,99.90
2019-03-17T22:58:10.097Z,99.90
2019-03-17T23:00:44.279Z,99.90
2019-03-17T23:03:18.087Z,99.90
2019-03-17T23:05:51.129Z,99.90
2019-03-17T23:08:25.512Z,99.90
2019-03-17T23:10:58.673Z,99.90
2019-03-17T23:13:31.786Z,99.90
2019-03-17T23:16:06.159Z,99.90
2019-03-17T23:18:39.311Z,99.90
2019-03-17T23:21:12.216Z,99.90
2019-03-17T23:23:45.320Z,99.90
2019-03-17T23:26:18.082Z,99.90
2019-03-17T23:28:51.813Z,99.90
2019-03-17T23:31:24.819Z,99.90
2019-03-17T23:33:57.662Z,99.90
2019-03-17T23:36:30.522Z,99.90
2019-03-17T23:39:04.041Z,99.90
2019-03-17T23:41:37.671Z,99.90
2019-03-17T23:44:10.763Z,99.90
2019-03-17T23:46:43.571Z,99.90
2019-03-17T23:49:16.627Z,99.90
2019-03-17T23:51:50.369Z,99.90
2019-03-17T23:54:23.147Z,99.90
2019-03-17T23:56:56.631Z,99.90
2019-03-17T23:59:29.665Z,99.90
